Time;durP1;ratioP1;P1;durP2;ratioP2;P2;SDS_P1;SDS_P2;PMS_P1;PMS_P2;Temp;Humidity;BMP_temperature;BMP_pressure;BME280_temperature;BME280_humidity;BME280_pressure;Samples;Min_cycle;Max_cycle;Signal;HPM_P1;HPM_P2
2022/02/25 00:00:09;;;;;;;1.00;0.85;;;17.00;64.10;;;;;;5069021;28;20044;-21
2022/02/25 00:02:34;;;;;;;0.65;0.65;;;17.00;64.00;;;;;;5072533;28;20120;-21
2022/02/25 00:05:00;;;;;;;0.82;0.70;;;17.00;64.00;;;;;;5065125;28;20102;-21
2022/02/25 00:07:25;;;;;;;0.80;0.80;;;17.10;64.10;;;;;;5052472;28;20063;-21
2022/02/25 00:09:51;;;;;;;0.52;0.50;;;17.00;64.10;;;;;;5066494;28;20052;-21
2022/02/25 00:12:16;;;;;;;0.85;0.85;;;17.00;64.10;;;;;;5067729;28;20822;-21
2022/02/25 00:14:42;;;;;;;0.70;0.70;;;17.00;63.90;;;;;;5072170;28;20151;-21
2022/02/25 00:17:08;;;;;;;0.60;0.60;;;17.00;63.90;;;;;;5056973;28;20041;-21
2022/02/25 00:19:33;;;;;;;0.60;0.60;;;17.10;64.20;;;;;;5063021;28;20071;-21
2022/02/25 00:21:59;;;;;;;0.80;0.80;;;17.00;64.10;;;;;;5069471;28;20394;-23
2022/02/25 00:24:24;;;;;;;0.73;0.60;;;17.00;64.00;;;;;;5064417;28;20054;-21
2022/02/25 00:26:50;;;;;;;0.80;0.68;;;17.00;64.00;;;;;;5069723;28;20044;-21
2022/02/25 00:29:15;;;;;;;1.50;0.70;;;17.00;64.00;;;;;;5058313;28;20098;-21
2022/02/25 00:31:41;;;;;;;0.75;0.75;;;17.00;64.00;;;;;;5070162;28;20100;-21
2022/02/25 00:34:07;;;;;;;0.65;0.60;;;17.00;64.00;;;;;;5067812;28;20102;-21
2022/02/25 00:36:32;;;;;;;0.70;0.70;;;17.00;64.00;;;;;;5067584;28;20139;-21
2022/02/25 00:38:58;;;;;;;0.60;0.60;;;17.00;64.00;;;;;;5060610;28;20146;-21
2022/02/25 00:41:24;;;;;;;1.27;0.65;;;17.00;64.00;;;;;;5065937;28;20083;-21
2022/02/25 00:43:49;;;;;;;0.63;0.60;;;17.00;64.00;;;;;;5063187;28;20056;-21
2022/02/25 00:46:15;;;;;;;0.57;0.57;;;17.00;63.90;;;;;;5071205;28;20040;-22
2022/02/25 00:48:41;;;;;;;0.65;0.65;;;17.00;63.90;;;;;;5070395;28;20058;-21
2022/02/25 00:51:06;;;;;;;0.60;0.60;;;17.00;63.90;;;;;;5068170;28;20040;-22
2022/02/25 00:53:32;;;;;;;0.80;0.68;;;17.00;64.00;;;;;;5060288;28;20048;-21
2022/02/25 00:55:57;;;;;;;0.90;0.52;;;17.00;63.80;;;;;;5069090;28;20052;-21
2022/02/25 00:58:23;;;;;;;0.70;0.70;;;17.00;63.90;;;;;;5068746;28;20080;-21
2022/02/25 01:00:48;;;;;;;3.15;0.68;;;17.00;63.80;;;;;;5066146;28;20040;-21
2022/02/25 01:03:14;;;;;;;0.50;0.50;;;17.00;63.70;;;;;;5070674;28;20068;-21
2022/02/25 01:05:40;;;;;;;0.70;0.63;;;17.00;63.80;;;;;;5070226;28;20040;-21
2022/02/25 01:08:06;;;;;;;0.70;0.70;;;17.00;63.80;;;;;;5068666;28;20041;-22
2022/02/25 01:10:35;;;;;;;0.70;0.70;;;17.00;63.80;;;;;;5074931;28;20048;-21
2022/02/25 01:13:01;;;;;;;0.75;0.60;;;17.00;63.70;;;;;;5061348;28;20048;-21
2022/02/25 01:15:27;;;;;;;0.82;0.60;;;17.00;63.60;;;;;;5060968;28;20041;-21
2022/02/25 01:17:52;;;;;;;1.08;0.77;;;17.00;63.70;;;;;;5071737;28;20418;-21
2022/02/25 01:20:18;;;;;;;0.60;0.60;;;16.90;63.80;;;;;;5064165;28;20044;-26
2022/02/25 01:22:44;;;;;;;0.93;0.50;;;16.90;63.80;;;;;;5075014;28;20071;-22
2022/02/25 01:25:10;;;;;;;0.73;0.63;;;17.00;63.70;;;;;;5069848;28;20493;-21
2022/02/25 01:27:36;;;;;;;0.50;0.50;;;17.00;63.80;;;;;;5061939;28;20410;-21
2022/02/25 01:30:03;;;;;;;0.60;0.60;;;17.00;63.80;;;;;;5068996;28;20096;-21
2022/02/25 01:32:29;;;;;;;0.50;0.40;;;17.00;63.80;;;;;;5072330;28;20440;-21
2022/02/25 01:34:55;;;;;;;0.88;0.88;;;16.90;63.70;;;;;;5065589;28;20094;-22
2022/02/25 01:37:21;;;;;;;0.60;0.60;;;17.00;63.80;;;;;;5064144;28;20041;-21
2022/02/25 01:39:46;;;;;;;0.60;0.50;;;16.90;63.80;;;;;;5063868;28;20045;-21
2022/02/25 01:42:12;;;;;;;0.82;0.52;;;16.90;63.90;;;;;;5062445;28;20046;-21
2022/02/25 01:44:40;;;;;;;1.02;0.63;;;16.90;63.70;;;;;;5069170;28;20510;-21
2022/02/25 01:47:06;;;;;;;0.73;0.73;;;16.90;63.80;;;;;;5060727;28;20136;-21
2022/02/25 01:49:31;;;;;;;0.50;0.50;;;16.90;63.70;;;;;;5062821;28;20044;-21
2022/02/25 01:51:59;;;;;;;0.60;0.60;;;16.90;63.80;;;;;;5064200;28;20051;-21
2022/02/25 01:54:25;;;;;;;0.60;0.60;;;16.90;63.70;;;;;;5062600;28;20135;-21
2022/02/25 01:56:51;;;;;;;0.60;0.60;;;16.90;63.80;;;;;;5064268;28;20215;-21
2022/02/25 01:59:17;;;;;;;0.85;0.47;;;16.80;63.80;;;;;;5060538;28;20072;-21
2022/02/25 02:01:43;;;;;;;0.50;0.50;;;16.90;63.70;;;;;;5062716;28;20484;-21
2022/02/25 02:04:09;;;;;;;0.50;0.50;;;16.90;63.80;;;;;;5064171;28;20036;-22
2022/02/25 02:06:35;;;;;;;0.95;0.70;;;16.80;63.80;;;;;;5062471;28;20037;-21
2022/02/25 02:09:01;;;;;;;0.65;0.63;;;16.80;63.60;;;;;;5063723;28;20579;-22
2022/02/25 02:11:36;;;;;;;1.58;0.70;;;16.80;63.60;;;;;;5062903;28;20417;-21
2022/02/25 02:14:03;;;;;;;2.00;0.63;;;16.90;63.60;;;;;;5064535;28;20051;-21
2022/02/25 02:16:29;;;;;;;0.52;0.52;;;16.90;63.50;;;;;;5064005;28;20044;-21
2022/02/25 02:18:55;;;;;;;0.57;0.55;;;16.80;63.60;;;;;;5063125;28;20045;-21
2022/02/25 02:21:26;;;;;;;0.82;0.55;;;16.80;63.60;;;;;;5067078;28;20128;-22
2022/02/25 02:23:55;;;;;;;0.80;0.80;;;16.90;63.40;;;;;;5066123;28;20060;-21
2022/02/25 02:26:21;;;;;;;1.08;0.57;;;16.80;63.40;;;;;;5064421;28;20109;-21
2022/02/25 02:28:47;;;;;;;0.57;0.50;;;16.80;63.40;;;;;;5073892;28;20116;-21
2022/02/25 02:31:13;;;;;;;0.50;0.50;;;16.80;63.50;;;;;;5068095;28;20041;-21
2022/02/25 02:33:40;;;;;;;0.60;0.55;;;16.70;63.50;;;;;;5066026;28;20037;-21
2022/02/25 02:36:06;;;;;;;0.68;0.50;;;16.70;63.70;;;;;;5071549;28;20052;-21
2022/02/25 02:38:31;;;;;;;0.75;0.70;;;16.70;63.60;;;;;;5069954;28;20202;-21
2022/02/25 02:40:57;;;;;;;1.48;0.65;;;16.70;63.80;;;;;;5077912;28;20079;-22
2022/02/25 02:43:22;;;;;;;0.70;0.60;;;16.70;64.50;;;;;;5063121;28;20048;-21
2022/02/25 02:45:48;;;;;;;0.45;0.40;;;16.80;63.50;;;;;;5062890;28;20044;-21
2022/02/25 02:48:14;;;;;;;0.43;0.43;;;16.70;63.50;;;;;;5061278;28;20045;-22
2022/02/25 02:50:41;;;;;;;0.73;0.65;;;16.80;63.40;;;;;;5071629;28;20051;-21
2022/02/25 02:53:06;;;;;;;0.82;0.63;;;16.70;63.50;;;;;;5073224;28;20041;-21
2022/02/25 02:55:32;;;;;;;0.57;0.57;;;16.70;63.60;;;;;;5057098;28;20128;-22
2022/02/25 02:57:58;;;;;;;0.63;0.63;;;16.70;63.50;;;;;;5060044;28;20045;-21
2022/02/25 03:00:23;;;;;;;1.58;0.57;;;16.80;63.30;;;;;;5059510;28;20045;-21
2022/02/25 03:02:49;;;;;;;0.80;0.55;;;16.70;63.40;;;;;;5069880;28;20118;-23
2022/02/25 03:05:17;;;;;;;0.98;0.60;;;16.70;63.40;;;;;;5064878;28;20041;-21
2022/02/25 03:07:42;;;;;;;1.20;0.50;;;16.70;63.30;;;;;;5057130;28;20183;-21
2022/02/25 03:10:10;;;;;;;0.57;0.50;;;16.70;63.30;;;;;;5057636;28;20106;-21
2022/02/25 03:12:36;;;;;;;0.65;0.60;;;16.70;63.30;;;;;;5056969;28;20044;-21
2022/02/25 03:15:02;;;;;;;0.50;0.50;;;16.70;63.40;;;;;;5057627;28;20052;-21
2022/02/25 03:17:27;;;;;;;0.90;0.70;;;16.70;63.20;;;;;;5056504;28;20048;-21
2022/02/25 03:19:54;;;;;;;0.55;0.55;;;16.60;63.40;;;;;;5062796;28;20094;-22
2022/02/25 03:22:20;;;;;;;0.50;0.40;;;16.70;63.20;;;;;;5060601;28;20045;-21
2022/02/25 03:24:45;;;;;;;0.60;0.60;;;16.70;63.10;;;;;;5070690;28;20044;-21
2022/02/25 03:27:11;;;;;;;1.33;0.65;;;16.70;63.30;;;;;;5056561;28;20044;-23
2022/02/25 03:29:37;;;;;;;0.88;0.50;;;16.70;63.20;;;;;;5057075;28;20044;-21
2022/02/25 03:32:03;;;;;;;0.50;0.50;;;16.70;63.20;;;;;;5057359;28;20086;-21
2022/02/25 03:34:28;;;;;;;0.47;0.43;;;16.70;63.30;;;;;;5057988;28;20449;-21
2022/02/25 03:36:54;;;;;;;1.05;0.50;;;16.70;63.10;;;;;;5068101;28;20049;-21
2022/02/25 03:39:19;;;;;;;0.60;0.60;;;16.60;63.20;;;;;;5057077;28;20056;-21
2022/02/25 03:41:45;;;;;;;0.82;0.50;;;16.70;63.20;;;;;;5066981;28;20087;-21
2022/02/25 03:44:10;;;;;;;0.60;0.57;;;16.60;63.20;;;;;;5056181;28;20041;-21
2022/02/25 03:46:36;;;;;;;0.40;0.40;;;16.60;63.10;;;;;;5057093;28;20453;-21
2022/02/25 03:49:02;;;;;;;0.50;0.50;;;16.60;63.30;;;;;;5056758;28;20124;-21
2022/02/25 03:51:29;;;;;;;0.82;0.55;;;16.60;63.20;;;;;;5071971;28;20501;-21
2022/02/25 03:53:54;;;;;;;0.70;0.57;;;16.60;63.20;;;;;;5065590;28;20222;-22
2022/02/25 03:56:20;;;;;;;0.50;0.45;;;16.60;63.10;;;;;;5065556;28;20152;-21
2022/02/25 03:58:45;;;;;;;0.68;0.68;;;16.60;63.10;;;;;;5076572;28;20093;-21
2022/02/25 04:01:11;;;;;;;0.30;0.30;;;16.60;63.30;;;;;;5066990;28;20049;-22
2022/02/25 04:03:37;;;;;;;0.30;0.30;;;16.60;63.20;;;;;;5066676;28;20140;-21
2022/02/25 04:06:02;;;;;;;0.55;0.50;;;16.60;63.10;;;;;;5066619;28;20065;-21
2022/02/25 04:08:29;;;;;;;0.63;0.40;;;16.60;63.20;;;;;;5075351;28;20040;-21
2022/02/25 04:10:55;;;;;;;0.50;0.40;;;16.60;63.30;;;;;;5076121;28;20071;-21
2022/02/25 04:13:20;;;;;;;0.90;0.50;;;16.50;63.10;;;;;;5061963;28;20037;-21
2022/02/25 04:15:46;;;;;;;0.70;0.60;;;16.60;63.10;;;;;;5056267;28;20180;-21
2022/02/25 04:18:12;;;;;;;0.40;0.40;;;16.60;63.10;;;;;;5061078;28;20076;-22
2022/02/25 04:20:37;;;;;;;0.40;0.40;;;16.50;63.20;;;;;;5070263;28;20040;-21
2022/02/25 04:23:03;;;;;;;1.25;0.40;;;16.50;63.20;;;;;;5056677;28;20057;-22
2022/02/25 04:25:29;;;;;;;1.00;0.85;;;16.50;63.20;;;;;;5055219;28;20037;-22
2022/02/25 04:27:55;;;;;;;0.88;0.73;;;16.50;63.20;;;;;;5055732;28;20056;-21
2022/02/25 04:30:21;;;;;;;0.63;0.50;;;16.50;63.20;;;;;;5055186;28;20041;-21
2022/02/25 04:32:47;;;;;;;0.50;0.50;;;16.50;63.20;;;;;;5055713;28;20049;-21
2022/02/25 04:35:12;;;;;;;0.80;0.40;;;16.50;63.10;;;;;;5062045;28;20033;-21
2022/02/25 04:37:38;;;;;;;0.80;0.50;;;16.50;63.20;;;;;;5069678;28;20045;-22
2022/02/25 04:40:05;;;;;;;0.57;0.40;;;16.50;63.20;;;;;;5068918;28;20123;-22
2022/02/25 04:42:31;;;;;;;1.08;0.50;;;16.50;63.10;;;;;;5054802;28;20048;-21
2022/02/25 04:44:56;;;;;;;0.40;0.40;;;16.50;63.10;;;;;;5055614;28;20486;-21
2022/02/25 04:47:22;;;;;;;0.73;0.57;;;16.50;63.20;;;;;;5055094;28;20050;-21
2022/02/25 04:49:47;;;;;;;0.77;0.40;;;16.50;63.30;;;;;;5059740;28;20048;-21
2022/02/25 04:52:13;;;;;;;0.40;0.30;;;16.50;63.30;;;;;;5055492;28;20314;-21
2022/02/25 04:54:39;;;;;;;0.80;0.50;;;16.50;63.20;;;;;;5055324;28;20048;-21
2022/02/25 04:57:05;;;;;;;0.77;0.50;;;16.50;63.20;;;;;;5055571;28;20045;-22
2022/02/25 04:59:30;;;;;;;0.50;0.40;;;16.50;63.20;;;;;;5063041;28;20131;-21
2022/02/25 05:01:56;;;;;;;0.88;0.35;;;16.50;63.10;;;;;;5065494;28;20053;-21
2022/02/25 05:04:21;;;;;;;0.32;0.30;;;16.50;63.10;;;;;;5055650;28;20076;-21
2022/02/25 05:06:47;;;;;;;0.50;0.43;;;16.50;63.20;;;;;;5054984;28;20087;-21
2022/02/25 05:09:13;;;;;;;0.40;0.30;;;16.50;63.10;;;;;;5055603;28;20045;-21
2022/02/25 05:11:38;;;;;;;0.82;0.43;;;16.50;63.10;;;;;;5054775;28;20098;-22
2022/02/25 05:14:04;;;;;;;0.35;0.32;;;16.40;63.10;;;;;;5055444;28;20127;-21
2022/02/25 05:21:58;;;;;;;0.65;0.65;;;16.50;63.20;;;;;;5054507;28;20099;-21
2022/02/25 05:24:23;;;;;;;0.40;0.40;;;16.40;63.10;;;;;;5055889;28;20322;-21
2022/02/25 05:26:49;;;;;;;0.63;0.40;;;16.40;63.10;;;;;;5066174;28;20147;-21
2022/02/25 05:29:14;;;;;;;0.50;0.47;;;16.40;63.10;;;;;;5058890;28;20037;-21
2022/02/25 05:31:40;;;;;;;0.30;0.30;;;16.40;63.30;;;;;;5054321;28;20056;-21
2022/02/25 05:34:06;;;;;;;1.25;0.30;;;16.40;63.20;;;;;;5064976;28;20041;-21
2022/02/25 05:36:31;;;;;;;0.40;0.32;;;16.40;63.10;;;;;;5061009;28;20414;-21
2022/02/25 05:38:57;;;;;;;0.60;0.50;;;16.40;63.20;;;;;;5066069;28;20500;-21
2022/02/25 05:41:23;;;;;;;0.60;0.60;;;16.40;63.40;;;;;;5074409;28;20048;-21
2022/02/25 05:43:49;;;;;;;0.45;0.35;;;16.30;63.30;;;;;;5064034;28;20497;-22
2022/02/25 05:46:14;;;;;;;0.50;0.40;;;16.40;63.30;;;;;;5055186;28;20498;-21
2022/02/25 05:48:40;;;;;;;0.45;0.30;;;16.30;63.30;;;;;;5058623;28;20053;-22
2022/02/25 05:51:05;;;;;;;0.35;0.25;;;16.40;63.30;;;;;;5057884;28;20049;-21
2022/02/25 05:53:31;;;;;;;0.88;0.63;;;16.40;63.10;;;;;;5055686;28;20049;-21
2022/02/25 05:55:57;;;;;;;0.28;0.20;;;16.40;63.30;;;;;;5058832;28;20037;-21
2022/02/25 05:58:23;;;;;;;0.30;0.30;;;16.40;63.30;;;;;;5062383;28;20131;-21
2022/02/25 06:00:48;;;;;;;0.30;0.30;;;16.30;63.40;;;;;;5058600;28;20041;-21
2022/02/25 06:03:14;;;;;;;0.63;0.40;;;16.30;63.30;;;;;;5064107;28;20068;-22
2022/02/25 06:05:39;;;;;;;0.50;0.50;;;16.30;63.60;;;;;;5059862;28;20406;-21
2022/02/25 06:08:05;;;;;;;0.32;0.30;;;16.30;63.80;;;;;;5065295;28;20048;-22
2022/02/25 06:10:31;;;;;;;0.22;0.20;;;16.30;63.90;;;;;;5066187;28;20123;-22
2022/02/25 06:12:56;;;;;;;1.02;0.43;;;16.30;64.20;;;;;;5075156;28;20069;-21
2022/02/25 06:15:29;;;;;;;0.54;0.54;;;16.30;64.10;;;;;;4945295;28;10000393;-21
2022/02/25 06:17:54;;;;;;;4.03;3.38;;;16.40;64.10;;;;;;5070330;28;20265;-21
2022/02/25 06:20:21;;;;;;;5.22;4.20;;;16.40;64.00;;;;;;5072779;28;20071;-22
2022/02/25 06:22:46;;;;;;;4.60;2.40;;;16.40;64.20;;;;;;5056262;28;20049;-21
2022/02/25 06:25:13;;;;;;;2.33;2.15;;;16.40;64.40;;;;;;5074451;28;20052;-21
2022/02/25 06:27:39;;;;;;;2.70;2.50;;;16.40;64.20;;;;;;5071278;28;20044;-20
2022/02/25 06:30:08;;;;;;;2.97;2.47;;;16.40;64.10;;;;;;5073427;28;20108;-21
2022/02/25 06:32:34;;;;;;;4.35;3.28;;;16.40;64.00;;;;;;5073149;28;20495;-21
2022/02/25 06:35:00;;;;;;;4.75;3.03;;;16.50;63.90;;;;;;5061691;28;20100;-21
2022/02/25 06:37:28;;;;;;;3.45;3.15;;;16.50;64.00;;;;;;5070932;28;20048;-21
2022/02/25 06:39:54;;;;;;;6.82;3.58;;;16.50;64.20;;;;;;5071874;28;20456;-22
2022/02/25 06:42:20;;;;;;;3.78;3.47;;;16.40;64.20;;;;;;5072056;28;20048;-21
2022/02/25 06:44:45;;;;;;;6.00;3.63;;;16.40;64.50;;;;;;5073641;28;20053;-21
2022/02/25 06:47:11;;;;;;;4.47;3.58;;;16.40;64.60;;;;;;5068254;28;20516;-21
2022/02/25 06:49:38;;;;;;;4.97;2.85;;;16.40;65.10;;;;;;5073043;28;20045;-21
2022/02/25 06:52:04;;;;;;;4.70;3.42;;;16.40;65.30;;;;;;5071278;28;20056;-21
2022/02/25 06:54:30;;;;;;;2.72;2.53;;;16.40;65.10;;;;;;5069212;28;20125;-21
2022/02/25 06:56:55;;;;;;;3.70;2.72;;;16.40;65.10;;;;;;5062560;28;20060;-21
2022/02/25 06:59:21;;;;;;;3.83;2.78;;;16.40;65.30;;;;;;5067045;28;20063;-21
2022/02/25 07:01:47;;;;;;;3.67;3.30;;;16.40;64.90;;;;;;5064486;28;20552;-21
2022/02/25 07:04:12;;;;;;;4.25;2.58;;;16.40;64.80;;;;;;5069191;28;20044;-21
2022/02/25 07:06:38;;;;;;;4.43;2.50;;;16.40;64.80;;;;;;5071130;28;20194;-21
2022/02/25 07:09:07;;;;;;;3.35;3.05;;;16.40;64.80;;;;;;5066368;28;20135;-21
2022/02/25 07:11:33;;;;;;;4.90;3.00;;;16.40;64.60;;;;;;5066475;28;20334;-21
2022/02/25 07:13:59;;;;;;;3.17;2.88;;;16.30;64.80;;;;;;5074779;28;20056;-21
2022/02/25 07:16:24;;;;;;;14.80;3.65;;;16.40;64.80;;;;;;5069389;28;20053;-21
2022/02/25 07:18:50;;;;;;;6.50;3.20;;;16.40;65.00;;;;;;5059745;28;20452;-22
2022/02/25 07:21:15;;;;;;;6.88;3.58;;;16.40;65.00;;;;;;5069720;28;20045;-21
2022/02/25 07:23:41;;;;;;;4.57;2.90;;;16.40;64.70;;;;;;4716530;28;10000258;-21
2022/02/25 07:26:07;;;;;;;3.20;2.53;;;16.40;64.80;;;;;;5074776;28;20048;-21
2022/02/25 07:28:33;;;;;;;10.02;6.38;;;16.30;64.60;;;;;;5070399;28;20036;-21
2022/02/25 07:30:59;;;;;;;10.55;7.85;;;16.40;64.60;;;;;;5072084;28;20045;-21
2022/02/25 07:33:24;;;;;;;13.38;8.45;;;16.40;64.60;;;;;;5072453;28;20039;-22
2022/02/25 07:35:50;;;;;;;12.57;8.75;;;16.30;64.40;;;;;;5065678;28;20076;-21
2022/02/25 07:38:15;;;;;;;11.10;7.30;;;16.30;64.70;;;;;;5067639;28;20517;-21
2022/02/25 07:40:41;;;;;;;14.57;7.30;;;16.30;65.00;;;;;;5059539;28;20409;-21
2022/02/25 07:43:07;;;;;;;12.50;7.22;;;16.30;65.20;;;;;;5064797;28;20052;-21
2022/02/25 07:45:34;;;;;;;18.00;8.20;;;16.40;65.00;;;;;;5063803;28;20539;-20
2022/02/25 07:48:00;;;;;;;15.50;7.38;;;16.40;64.60;;;;;;5050963;28;20111;-23
2022/02/25 07:50:26;;;;;;;12.93;7.30;;;16.40;65.00;;;;;;5043305;28;20092;-20
2022/02/25 07:52:52;;;;;;;13.35;6.50;;;16.40;65.00;;;;;;5048759;28;20082;-21
2022/02/25 07:55:18;;;;;;;12.65;7.18;;;16.40;65.00;;;;;;5045177;28;20048;-21
2022/02/25 07:57:44;;;;;;;14.80;7.75;;;16.40;64.90;;;;;;5045747;28;20107;-22
2022/02/25 08:00:12;;;;;;;13.90;7.05;;;16.40;65.00;;;;;;5057418;28;20698;-21
2022/02/25 08:02:38;;;;;;;10.18;6.78;;;16.30;65.20;;;;;;5046919;28;20049;-21
2022/02/25 08:05:04;;;;;;;10.10;6.50;;;16.40;64.80;;;;;;5052099;28;20063;-22
2022/02/25 08:07:32;;;;;;;9.70;6.30;;;16.30;65.00;;;;;;5040907;28;20870;-22
2022/02/25 08:09:58;;;;;;;9.90;6.10;;;16.30;65.00;;;;;;5046848;28;20053;-23
2022/02/25 08:12:24;;;;;;;9.82;5.40;;;16.30;65.00;;;;;;5055181;28;20053;-22
2022/02/25 08:14:50;;;;;;;6.53;5.15;;;16.40;64.90;;;;;;5047950;28;20048;-22
2022/02/25 08:17:15;;;;;;;15.27;6.30;;;16.40;64.80;;;;;;5046820;28;20721;-22
2022/02/25 08:19:41;;;;;;;12.18;6.30;;;16.50;64.60;;;;;;5042185;28;20140;-22
2022/02/25 08:22:06;;;;;;;11.02;6.55;;;16.60;64.60;;;;;;5049482;28;20057;-22
2022/02/25 08:24:32;;;;;;;7.68;5.50;;;16.60;64.30;;;;;;5044842;28;20059;-22
2022/02/25 08:26:58;;;;;;;8.90;5.05;;;16.50;64.40;;;;;;5063739;28;20436;-22
2022/02/25 08:29:23;;;;;;;13.07;5.38;;;16.60;64.20;;;;;;5072724;28;20048;-22
2022/02/25 08:31:51;;;;;;;8.70;5.05;;;16.50;64.00;;;;;;5066169;28;20051;-20
2022/02/25 08:34:17;;;;;;;8.43;5.32;;;16.50;64.10;;;;;;5055622;28;20070;-20
2022/02/25 08:36:42;;;;;;;7.47;4.57;;;16.50;64.20;;;;;;5055274;28;20060;-20
2022/02/25 08:39:08;;;;;;;6.88;5.13;;;16.50;64.00;;;;;;5070306;28;20585;-20
2022/02/25 08:41:34;;;;;;;6.05;4.68;;;16.60;64.10;;;;;;5070036;28;20052;-22
2022/02/25 08:43:59;;;;;;;6.60;4.80;;;16.60;64.00;;;;;;5060531;28;20041;-22
2022/02/25 08:46:25;;;;;;;5.78;4.65;;;16.70;63.50;;;;;;5063179;28;20135;-22
2022/02/25 08:48:50;;;;;;;11.25;5.57;;;16.70;63.50;;;;;;5064028;28;20079;-22
2022/02/25 08:51:16;;;;;;;9.10;4.60;;;16.70;63.60;;;;;;5064842;28;20114;-22
2022/02/25 08:53:42;;;;;;;7.25;4.72;;;16.70;63.70;;;;;;5070039;28;20135;-19
2022/02/25 08:56:08;;;;;;;5.72;4.57;;;16.70;63.30;;;;;;5074646;28;20047;-20
2022/02/25 08:58:34;;;;;;;6.50;4.70;;;16.70;63.40;;;;;;5071216;28;20500;-22
2022/02/25 09:01:00;;;;;;;7.20;4.75;;;16.70;63.20;;;;;;5064126;28;20088;-22
2022/02/25 09:03:25;;;;;;;4.60;4.20;;;16.70;63.20;;;;;;5073296;28;20040;-22
2022/02/25 09:05:51;;;;;;;8.35;4.72;;;16.70;63.10;;;;;;5074542;28;20073;-22
2022/02/25 09:08:17;;;;;;;4.90;3.85;;;16.70;63.40;;;;;;5061916;28;20052;-22
2022/02/25 09:10:44;;;;;;;8.13;4.85;;;16.60;63.70;;;;;;5054430;28;20041;-22
2022/02/25 09:13:10;;;;;;;4.47;4.05;;;16.70;63.50;;;;;;5057629;28;20052;-20
2022/02/25 09:15:36;;;;;;;6.70;3.65;;;16.70;63.30;;;;;;5071116;28;20041;-22
2022/02/25 09:18:04;;;;;;;5.90;3.90;;;16.70;63.50;;;;;;5072422;28;20433;-22
2022/02/25 09:20:29;;;;;;;6.35;4.57;;;16.70;63.20;;;;;;5075028;28;20041;-21
2022/02/25 09:22:56;;;;;;;8.43;4.43;;;16.70;63.20;;;;;;5073678;28;20124;-22
2022/02/25 09:25:22;;;;;;;8.45;4.28;;;16.70;63.70;;;;;;5060833;28;20055;-21
2022/02/25 09:27:48;;;;;;;7.05;4.13;;;16.70;63.60;;;;;;5055247;28;20132;-22
2022/02/25 09:30:14;;;;;;;6.03;3.83;;;16.70;63.60;;;;;;5070027;28;20044;-22
2022/02/25 09:32:40;;;;;;;4.93;4.07;;;16.70;63.40;;;;;;5067518;28;20033;-22
2022/02/25 09:35:06;;;;;;;4.03;3.58;;;16.70;63.60;;;;;;5059231;28;20033;-21
2022/02/25 09:37:34;;;;;;;4.53;3.88;;;16.80;63.50;;;;;;5062555;28;20109;-23
2022/02/25 09:40:11;;;;;;;5.43;3.80;;;16.80;63.50;;;;;;5067773;28;20052;-22
2022/02/25 09:42:37;;;;;;;5.95;4.13;;;16.80;63.20;;;;;;5075513;28;20362;-22
2022/02/25 09:45:04;;;;;;;5.68;3.80;;;16.80;63.20;;;;;;5079022;28;20040;-22
2022/02/25 09:47:30;;;;;;;6.80;4.03;;;16.90;63.30;;;;;;5072970;28;20501;-22
2022/02/25 09:49:55;;;;;;;4.35;3.63;;;16.90;63.00;;;;;;5059372;28;20044;-21
2022/02/25 09:52:21;;;;;;;4.60;4.07;;;17.00;63.20;;;;;;5067756;28;20069;-22
2022/02/25 09:54:46;;;;;;;4.70;3.65;;;17.00;63.30;;;;;;5064872;28;20506;-22
2022/02/25 09:57:12;;;;;;;4.07;3.10;;;17.00;63.10;;;;;;5073247;28;20067;-19
2022/02/25 09:59:38;;;;;;;4.07;3.20;;;17.00;62.90;;;;;;5068986;28;20132;-21
2022/02/25 10:02:04;;;;;;;5.40;3.20;;;17.00;62.90;;;;;;5074622;28;20527;-22
2022/02/25 10:04:30;;;;;;;5.30;2.95;;;17.00;62.60;;;;;;5073632;28;20048;-19
2022/02/25 10:06:56;;;;;;;3.20;3.00;;;17.10;62.80;;;;;;5062910;28;20103;-22
2022/02/25 10:09:39;;;;;;;5.30;3.03;;;17.00;62.80;;;;;;5069210;28;20049;-21
2022/02/25 10:12:08;;;;;;;3.90;3.42;;;17.10;62.80;;;;;;5075977;28;20100;-22
2022/02/25 10:14:36;;;;;;;3.53;3.17;;;17.10;62.40;;;;;;5066471;28;20493;-22
2022/02/25 10:17:15;;;;;;;3.42;3.15;;;17.10;62.50;;;;;;5059104;28;20048;-19
2022/02/25 10:19:42;;;;;;;4.05;3.20;;;17.20;62.60;;;;;;5057249;28;20137;-22
2022/02/25 10:22:25;;;;;;;3.67;3.10;;;17.20;62.50;;;;;;5068422;28;20052;-20
2022/02/25 10:24:55;;;;;;;2.95;2.75;;;17.20;62.60;;;;;;5068921;28;20045;-22
2022/02/25 10:27:40;;;;;;;3.10;2.80;;;17.20;62.40;;;;;;5060732;28;20049;-22
2022/02/25 10:30:15;;;;;;;;;;;17.20;62.40;;;;;;5058009;28;20044;-22
2022/02/25 10:32:45;;;;;;;2.95;2.75;;;17.30;62.20;;;;;;5057613;28;19995;-22
2022/02/25 10:35:36;;;;;;;2.60;2.40;;;17.30;62.30;;;;;;5058346;28;20048;-22
2022/02/25 10:38:03;;;;;;;2.97;2.30;;;17.30;62.30;;;;;;5067220;28;20416;-22
2022/02/25 10:40:38;;;;;;;3.08;2.65;;;17.30;62.00;;;;;;5073450;28;20040;-22
2022/02/25 10:43:19;;;;;;;2.47;2.28;;;17.40;61.90;;;;;;5072761;28;20504;-22
2022/02/25 10:45:46;;;;;;;2.80;2.47;;;17.50;61.70;;;;;;5073388;28;20413;-21
2022/02/25 10:48:14;;;;;;;2.20;2.10;;;17.50;61.90;;;;;;5073414;28;20114;-22
2022/02/25 10:50:49;;;;;;;3.92;2.65;;;17.50;62.10;;;;;;5073367;28;20040;-22
2022/02/25 10:53:16;;;;;;;2.97;2.78;;;17.50;61.90;;;;;;5067123;28;20076;-21
2022/02/25 10:55:41;;;;;;;2.42;2.22;;;17.50;61.60;;;;;;5072476;28;20102;-21
2022/02/25 10:58:07;;;;;;;2.58;2.38;;;17.50;61.70;;;;;;5061248;28;20041;-22
2022/02/25 11:00:33;;;;;;;2.75;2.20;;;17.50;61.60;;;;;;5064028;28;20048;-22
2022/02/25 11:03:01;;;;;;;2.92;2.50;;;17.50;61.80;;;;;;5064786;28;20048;-21
2022/02/25 11:05:29;;;;;;;3.70;2.20;;;17.60;61.70;;;;;;5068496;28;20063;-22
2022/02/25 11:07:58;;;;;;;2.10;1.95;;;17.60;61.70;;;;;;5054381;28;20041;-22
2022/02/25 11:10:26;;;;;;;3.67;2.22;;;17.60;61.50;;;;;;5067494;28;20166;-21
2022/02/25 11:12:53;;;;;;;2.83;2.15;;;17.60;61.40;;;;;;5072834;28;20051;-22
2022/02/25 11:15:23;;;;;;;2.78;2.58;;;17.60;61.40;;;;;;5071205;28;20055;-22
2022/02/25 11:17:49;;;;;;;2.00;1.90;;;17.60;61.40;;;;;;5052602;28;20110;-22
2022/02/25 11:20:20;;;;;;;3.08;1.85;;;17.70;61.30;;;;;;5062870;28;20041;-22
2022/02/25 11:22:45;;;;;;;2.40;2.17;;;17.60;61.20;;;;;;5065440;28;20048;-21
2022/02/25 11:25:14;;;;;;;1.83;1.73;;;17.70;62.00;;;;;;5048295;28;20059;-21
2022/02/25 11:27:44;;;;;;;2.35;2.15;;;17.70;61.30;;;;;;5060727;28;20548;-22
2022/02/25 11:30:34;;;;;;;2.50;2.00;;;17.70;61.30;;;;;;5071966;28;20041;-21
2022/02/25 11:33:02;;;;;;;2.38;2.17;;;17.70;61.50;;;;;;5055374;28;20572;-21
2022/02/25 11:35:32;;;;;;;2.65;2.45;;;17.70;61.40;;;;;;5056214;28;20055;-21
2022/02/25 11:38:06;;;;;;;2.70;2.50;;;17.70;61.40;;;;;;5064623;28;20041;-21
2022/02/25 11:40:59;;;;;;;3.33;3.13;;;17.70;61.50;;;;;;5066336;28;20060;-22
2022/02/25 11:43:42;;;;;;;2.38;2.20;;;17.70;61.30;;;;;;5070551;28;20055;-21
2022/02/25 11:46:10;;;;;;;3.08;2.88;;;17.70;61.50;;;;;;5067281;28;20105;-22
2022/02/25 11:48:46;;;;;;;2.97;2.78;;;17.60;61.70;;;;;;5070476;28;20428;-21
2022/02/25 11:51:50;;;;;;;3.00;2.78;;;17.60;61.80;;;;;;5062419;28;20072;-21
2022/02/25 11:54:31;;;;;;;2.55;2.35;;;17.60;61.80;;;;;;5052075;28;20599;-21
2022/02/25 11:56:57;;;;;;;3.03;2.83;;;17.60;61.90;;;;;;5058724;28;20048;-22
2022/02/25 11:59:31;;;;;;;2.80;2.60;;;17.60;61.80;;;;;;5069519;28;20048;-22
2022/02/25 12:02:13;;;;;;;2.83;2.58;;;17.60;61.80;;;;;;5063545;28;20049;-21
2022/02/25 12:04:40;;;;;;;3.63;2.47;;;17.70;61.80;;;;;;5068153;28;20408;-21
2022/02/25 12:07:06;;;;;;;2.35;2.20;;;17.70;61.50;;;;;;5068030;28;20044;-21
2022/02/25 12:10:10;;;;;;;3.15;2.92;;;17.70;61.50;;;;;;5062758;28;20056;-21
2022/02/25 12:12:36;;;;;;;3.45;2.50;;;17.80;61.50;;;;;;4710691;28;9999682;-22
2022/02/25 12:15:36;;;;;;;3.00;2.58;;;17.80;61.70;;;;;;5066736;28;20048;-22
2022/02/25 12:18:03;;;;;;;2.22;2.08;;;17.70;61.50;;;;;;5064763;28;20099;-22
2022/02/25 12:20:38;;;;;;;2.75;2.55;;;17.70;61.70;;;;;;5067108;28;20043;-22
2022/02/25 12:23:04;;;;;;;2.30;2.20;;;17.70;61.50;;;;;;5069440;28;20191;-22
2022/02/25 12:25:38;;;;;;;9.30;2.58;;;17.80;61.40;;;;;;5066683;28;20127;-21
2022/02/25 12:28:04;;;;;;;2.60;2.40;;;17.80;61.60;;;;;;5068623;28;20040;-22
2022/02/25 12:30:43;;;;;;;1.88;1.77;;;17.80;61.60;;;;;;5071198;28;20039;-22
2022/02/25 12:33:31;;;;;;;2.13;2.00;;;17.80;61.70;;;;;;5068217;28;20105;-22
2022/02/25 12:35:58;;;;;;;2.22;2.00;;;17.80;61.50;;;;;;5070986;28;20040;-21
2022/02/25 12:38:24;;;;;;;2.42;2.22;;;17.80;61.50;;;;;;5071672;28;20615;-21
2022/02/25 12:40:51;;;;;;;2.65;2.15;;;17.80;61.40;;;;;;5061052;28;20029;-21
2022/02/25 12:43:18;;;;;;;2.20;2.00;;;17.80;61.50;;;;;;5070998;28;20047;-21
2022/02/25 12:45:43;;;;;;;2.15;2.05;;;17.80;61.70;;;;;;5076604;28;20033;-23
2022/02/25 12:48:09;;;;;;;2.17;2.00;;;17.70;61.70;;;;;;5064664;28;20052;-21
2022/02/25 12:50:41;;;;;;;3.20;2.10;;;17.70;61.80;;;;;;5062459;28;20152;-22